Time;durP1;ratioP1;P1;durP2;ratioP2;P2;SDS_P1;SDS_P2;PMS_P1;PMS_P2;Temp;Humidity;BMP_temperature;BMP_pressure;BME280_temperature;BME280_humidity;BME280_pressure;Samples;Min_cycle;Max_cycle;Signal;HPM_P1;HPM_P2
2022/10/17 00:01:40;;;;;;;1999.90;999.90;;;16.80;99.90;;;;;;4975363;28;20226;-64
2022/10/17 00:04:06;;;;;;;1999.90;999.90;;;16.70;99.90;;;;;;4975347;28;20211;-64
2022/10/17 00:06:32;;;;;;;1999.90;999.90;;;16.70;99.90;;;;;;4975213;28;20676;-64
2022/10/17 00:08:57;;;;;;;1999.90;999.90;;;16.80;99.90;;;;;;4975177;28;20233;-64
2022/10/17 00:11:23;;;;;;;1999.90;999.90;;;16.80;99.90;;;;;;4975260;28;20193;-64
2022/10/17 00:13:53;;;;;;;1999.90;999.90;;;16.80;99.90;;;;;;4975302;28;20176;-64
2022/10/17 00:16:31;;;;;;;1999.90;999.90;;;16.80;99.90;;;;;;4975211;28;20412;-64
2022/10/17 00:18:57;;;;;;;1999.90;999.90;;;16.70;99.90;;;;;;4974978;28;20410;-64
2022/10/17 00:21:23;;;;;;;1999.90;999.90;;;16.70;99.90;;;;;;4974997;28;20436;-64
2022/10/17 00:23:49;;;;;;;1999.90;999.90;;;16.60;99.90;;;;;;4975081;28;20177;-64
2022/10/17 00:26:16;;;;;;;1999.90;999.90;;;16.60;99.90;;;;;;4974862;28;20471;-64
2022/10/17 00:28:42;;;;;;;1999.90;999.90;;;16.60;99.90;;;;;;4974716;28;20525;-64
2022/10/17 00:31:07;;;;;;;1999.90;999.90;;;16.60;99.90;;;;;;4974907;28;20894;-64
2022/10/17 00:33:34;;;;;;;1999.90;999.90;;;16.60;99.90;;;;;;4974900;28;20443;-64
2022/10/17 00:36:07;;;;;;;1999.90;999.90;;;16.60;99.90;;;;;;4974743;28;20179;-64
2022/10/17 00:38:33;;;;;;;1999.90;999.90;;;16.60;99.90;;;;;;5026404;23;20483;-68
2022/10/17 00:40:59;;;;;;;1999.90;999.90;;;16.50;99.90;;;;;;5012616;28;20410;-68
2022/10/17 00:43:25;;;;;;;1999.90;999.90;;;16.50;99.90;;;;;;5013691;28;20469;-68
2022/10/17 00:45:51;;;;;;;1999.90;999.90;;;16.50;99.90;;;;;;5013772;28;20616;-68
2022/10/17 00:48:17;;;;;;;1999.90;999.90;;;16.40;99.90;;;;;;5013349;28;20422;-68
2022/10/17 00:50:47;;;;;;;1999.90;999.90;;;16.40;99.90;;;;;;5013653;28;20628;-68
2022/10/17 00:53:13;;;;;;;1999.90;999.90;;;16.30;99.90;;;;;;5013566;28;20398;-68
2022/10/17 00:55:50;;;;;;;1999.90;999.90;;;16.30;99.90;;;;;;5013465;28;20834;-69
2022/10/17 00:58:16;;;;;;;1999.90;999.90;;;16.20;99.90;;;;;;5013340;28;20429;-69
2022/10/17 01:00:43;;;;;;;1999.90;999.90;;;16.20;99.90;;;;;;5013729;28;20940;-69
2022/10/17 01:03:09;;;;;;;1999.90;999.90;;;16.20;99.90;;;;;;5013827;28;20414;-68
2022/10/17 01:05:35;;;;;;;1999.90;999.90;;;16.20;99.90;;;;;;5013681;28;20513;-69
2022/10/17 01:08:01;;;;;;;1999.90;999.90;;;16.20;99.90;;;;;;5012983;28;20298;-69
2022/10/17 01:10:33;;;;;;;1999.90;999.90;;;16.20;99.90;;;;;;5013180;28;20535;-69
2022/10/17 01:13:04;;;;;;;1999.90;999.90;;;16.20;99.90;;;;;;5013311;28;20759;-69
2022/10/17 01:15:35;;;;;;;1999.90;999.90;;;16.20;99.90;;;;;;5013241;28;20439;-69
2022/10/17 01:18:16;;;;;;;1999.90;999.90;;;16.20;99.90;;;;;;5012741;28;20434;-70
2022/10/17 01:20:57;;;;;;;1999.90;999.90;;;16.20;99.90;;;;;;5013053;28;20415;-70
2022/10/17 01:23:22;;;;;;;1999.90;999.90;;;16.20;99.90;;;;;;5013074;28;20437;-70
2022/10/17 01:25:54;;;;;;;1999.90;999.90;;;16.20;99.90;;;;;;5013224;28;20475;-68
2022/10/17 01:29:04;;;;;;;1999.90;999.90;;;16.10;99.90;;;;;;5013022;28;20190;-69
2022/10/17 01:31:46;;;;;;;1999.90;999.90;;;16.10;99.90;;;;;;5013556;28;20912;-69
2022/10/17 01:34:23;;;;;;;1999.90;999.90;;;16.10;99.90;;;;;;5013208;28;20396;-69
2022/10/17 01:36:55;;;;;;;1999.90;999.90;;;16.10;99.90;;;;;;5013036;28;20499;-69
2022/10/17 01:39:29;;;;;;;1999.90;999.90;;;16.10;99.90;;;;;;5012587;28;20452;-69
2022/10/17 01:42:09;;;;;;;1999.90;999.90;;;16.10;99.90;;;;;;5012870;28;20493;-69
2022/10/17 01:45:07;;;;;;;1999.90;999.90;;;16.10;99.90;;;;;;5012716;28;20419;-69
2022/10/17 01:47:33;;;;;;;1999.90;999.90;;;16.00;99.90;;;;;;5012329;28;20423;-69
2022/10/17 01:50:12;;;;;;;1999.90;999.90;;;16.00;99.90;;;;;;5012505;28;20553;-69
2022/10/17 01:52:53;;;;;;;1999.90;999.90;;;16.00;99.90;;;;;;5012318;28;20475;-69
2022/10/17 01:55:25;;;;;;;1999.90;999.90;;;16.10;99.90;;;;;;5012577;28;20898;-69
2022/10/17 01:57:55;;;;;;;1999.90;999.90;;;16.00;99.90;;;;;;5012122;28;20821;-69
2022/10/17 02:00:25;;;;;;;1999.90;999.90;;;16.10;99.90;;;;;;5012458;28;20414;-69
2022/10/17 02:02:59;;;;;;;1999.90;999.90;;;16.00;99.90;;;;;;5012289;28;20406;-69
2022/10/17 02:05:30;;;;;;;1999.90;999.90;;;16.00;99.90;;;;;;5012351;28;20487;-69
2022/10/17 02:07:56;;;;;;;1999.90;999.90;;;16.00;99.90;;;;;;5012017;28;20489;-69
2022/10/17 02:10:34;;;;;;;1999.90;999.90;;;16.00;99.90;;;;;;5012382;28;20500;-69
2022/10/17 02:13:24;;;;;;;1999.90;999.90;;;16.00;99.90;;;;;;5012324;28;20518;-69
2022/10/17 02:15:59;;;;;;;1999.90;999.90;;;16.00;99.90;;;;;;5012242;28;20928;-69
2022/10/17 02:18:59;;;;;;;1999.90;999.90;;;16.00;99.90;;;;;;5011985;28;20427;-69
2022/10/17 02:21:57;;;;;;;1999.90;999.90;;;16.00;99.90;;;;;;4983988;28;20469;-69
2022/10/17 02:24:36;;;;;;;1999.90;999.90;;;16.10;99.90;;;;;;4979697;28;20429;-68
2022/10/17 02:27:15;;;;;;;1999.90;999.90;;;16.10;99.90;;;;;;5012253;28;20958;-69
2022/10/17 02:29:59;;;;;;;1999.90;999.90;;;16.10;99.90;;;;;;5012441;28;20427;-68
2022/10/17 02:32:46;;;;;;;1999.90;999.90;;;16.10;99.90;;;;;;5012121;28;20411;-69
2022/10/17 02:35:14;;;;;;;1999.90;999.90;;;16.10;99.90;;;;;;5012124;28;20407;-69
2022/10/17 02:37:42;;;;;;;1999.90;999.90;;;16.10;99.90;;;;;;5011745;28;20405;-69
2022/10/17 02:40:11;;;;;;;1999.90;999.90;;;16.10;99.90;;;;;;5012016;28;20926;-69
2022/10/17 02:42:38;;;;;;;1999.90;999.90;;;16.20;99.90;;;;;;5011088;28;20858;-69
2022/10/17 02:45:04;;;;;;;1999.90;999.90;;;16.20;99.90;;;;;;5012084;28;20468;-69
2022/10/17 02:47:40;;;;;;;1999.90;999.90;;;16.30;99.90;;;;;;5011744;28;20461;-69
2022/10/17 02:50:06;;;;;;;1999.90;999.90;;;16.40;99.90;;;;;;5012242;28;20755;-69
2022/10/17 02:52:36;;;;;;;1999.90;999.90;;;16.50;99.90;;;;;;5011913;28;20824;-69
2022/10/17 02:55:14;;;;;;;1999.90;999.90;;;16.50;99.90;;;;;;5011892;28;20411;-69
2022/10/17 02:57:57;;;;;;;1999.90;999.90;;;16.50;99.90;;;;;;5011594;28;20400;-69
2022/10/17 03:00:24;;;;;;;1999.90;999.90;;;16.60;99.90;;;;;;5011877;28;20468;-69
2022/10/17 03:02:52;;;;;;;1999.90;999.90;;;16.50;99.90;;;;;;5011809;28;20439;-69
2022/10/17 03:05:22;;;;;;;1999.90;999.90;;;16.50;99.90;;;;;;5015503;28;20415;-69
2022/10/17 03:07:48;;;;;;;1999.90;999.90;;;16.60;99.90;;;;;;5015413;28;20402;-69
2022/10/17 03:10:14;;;;;;;1999.90;999.90;;;16.60;99.90;;;;;;5015588;28;20416;-69
2022/10/17 03:12:40;;;;;;;1999.90;999.90;;;16.60;99.90;;;;;;5015506;28;20415;-69
2022/10/17 03:15:06;;;;;;;1999.90;999.90;;;16.60;99.90;;;;;;5014717;28;20430;-69
2022/10/17 03:17:32;;;;;;;1999.90;999.90;;;16.60;99.90;;;;;;5015099;28;20221;-71
2022/10/17 03:19:57;;;;;;;1999.90;999.90;;;16.60;99.90;;;;;;5015161;28;20487;-69
2022/10/17 03:22:23;;;;;;;1999.90;999.90;;;16.50;99.90;;;;;;5015327;28;20832;-69
2022/10/17 03:24:49;;;;;;;1999.90;999.90;;;16.60;99.90;;;;;;5015244;28;20257;-69
2022/10/17 03:27:15;;;;;;;1999.90;999.90;;;16.60;99.90;;;;;;5014994;28;20253;-69
2022/10/17 03:29:40;;;;;;;1999.90;999.90;;;16.60;99.90;;;;;;5015040;28;20200;-69
2022/10/17 03:32:06;;;;;;;1999.90;999.90;;;16.60;99.90;;;;;;5015089;28;20640;-70
2022/10/17 03:34:31;;;;;;;1999.90;999.90;;;16.70;99.90;;;;;;5015018;28;20186;-69
2022/10/17 03:36:57;;;;;;;1999.90;999.90;;;16.70;99.90;;;;;;5014837;28;20201;-69
2022/10/17 03:39:23;;;;;;;1999.90;999.90;;;16.60;99.90;;;;;;5014685;28;20266;-69
2022/10/17 03:41:48;;;;;;;1999.90;999.90;;;16.60;99.90;;;;;;5015339;28;20287;-68
2022/10/17 03:44:14;;;;;;;1999.90;999.90;;;16.60;99.90;;;;;;5015451;28;20180;-69
2022/10/17 03:46:40;;;;;;;1999.90;999.90;;;16.60;99.90;;;;;;5014696;28;20190;-69
2022/10/17 03:49:05;;;;;;;1999.90;999.90;;;16.60;99.90;;;;;;5014891;28;20430;-69
2022/10/17 03:51:33;;;;;;;1999.90;999.90;;;16.60;99.90;;;;;;5014803;28;20534;-69
2022/10/17 03:53:59;;;;;;;1999.90;999.90;;;16.60;99.90;;;;;;5014878;28;20201;-69
2022/10/17 03:56:25;;;;;;;1999.90;999.90;;;16.60;99.90;;;;;;5014650;28;20455;-69
2022/10/17 03:58:50;;;;;;;1999.90;999.90;;;16.60;99.90;;;;;;5014395;28;20203;-69
2022/10/17 04:01:17;;;;;;;1999.90;999.90;;;16.60;99.90;;;;;;5014635;28;20212;-69
2022/10/17 04:03:43;;;;;;;1999.90;999.90;;;16.60;99.90;;;;;;5014937;28;20669;-69
2022/10/17 04:06:11;;;;;;;1999.90;999.90;;;16.60;99.90;;;;;;5014335;28;20460;-68
2022/10/17 04:08:37;;;;;;;1999.90;999.90;;;16.60;99.90;;;;;;5014403;28;20436;-68
2022/10/17 04:11:06;;;;;;;1999.90;999.90;;;16.50;99.90;;;;;;5014564;28;20489;-68
2022/10/17 04:13:33;;;;;;;1999.90;999.90;;;16.50;99.90;;;;;;5014399;28;20410;-69
2022/10/17 04:16:03;;;;;;;1999.90;999.90;;;16.60;99.90;;;;;;5013901;28;20446;-69
2022/10/17 04:18:29;;;;;;;1999.90;999.90;;;16.60;99.90;;;;;;5014207;28;20424;-69
2022/10/17 04:20:55;;;;;;;1999.90;999.90;;;16.70;99.90;;;;;;5014238;28;20505;-69
2022/10/17 04:23:21;;;;;;;1999.90;999.90;;;16.80;99.90;;;;;;5014153;28;20546;-69
2022/10/17 04:25:46;;;;;;;1999.90;999.90;;;16.90;99.90;;;;;;5014136;28;20245;-69
2022/10/17 04:28:12;;;;;;;1999.90;999.90;;;16.90;99.90;;;;;;5013755;28;20197;-69
2022/10/17 04:30:39;;;;;;;1999.90;999.90;;;16.90;99.90;;;;;;5013950;28;20405;-69
2022/10/17 04:33:04;;;;;;;1999.90;999.90;;;16.80;99.90;;;;;;5013979;28;20166;-69
2022/10/17 04:35:30;;;;;;;1999.90;999.90;;;16.80;99.90;;;;;;5013949;28;20623;-69
2022/10/17 04:37:55;;;;;;;1999.90;999.90;;;16.80;99.90;;;;;;5013404;28;20172;-69
2022/10/17 04:40:21;;;;;;;1999.90;999.90;;;16.70;99.90;;;;;;5013883;28;20172;-69
2022/10/17 04:42:47;;;;;;;1999.90;999.90;;;16.70;99.90;;;;;;5013860;28;20647;-69
2022/10/17 04:45:12;;;;;;;1999.90;999.90;;;16.70;99.90;;;;;;5013605;28;20199;-69
2022/10/17 04:47:38;;;;;;;1999.90;999.90;;;16.60;99.90;;;;;;5013336;28;20170;-69
2022/10/17 04:50:04;;;;;;;1999.90;999.90;;;16.60;99.90;;;;;;5013671;28;20174;-69
2022/10/17 04:52:30;;;;;;;1999.90;999.90;;;16.60;99.90;;;;;;5013730;28;20247;-69
2022/10/17 04:54:56;;;;;;;1999.90;999.90;;;16.50;99.90;;;;;;5013566;28;20516;-69
2022/10/17 04:57:23;;;;;;;1999.90;999.90;;;16.60;99.90;;;;;;5013269;28;20421;-69
2022/10/17 04:59:49;;;;;;;1999.90;999.90;;;16.60;99.90;;;;;;5013281;28;20428;-69
2022/10/17 05:02:15;;;;;;;1999.90;999.90;;;16.60;99.90;;;;;;5013424;28;20875;-69
2022/10/17 05:04:40;;;;;;;1999.90;999.90;;;16.70;99.90;;;;;;5013363;28;20452;-69
2022/10/17 05:07:06;;;;;;;1999.90;999.90;;;16.80;99.90;;;;;;5013028;28;20234;-69
2022/10/17 05:09:32;;;;;;;1999.90;999.90;;;16.80;99.90;;;;;;5013178;28;20672;-69
2022/10/17 05:11:57;;;;;;;1999.90;999.90;;;16.90;99.90;;;;;;5013372;28;20178;-69
2022/10/17 05:14:23;;;;;;;1999.90;999.90;;;16.80;99.90;;;;;;5013119;28;20174;-69
2022/10/17 05:16:48;;;;;;;1999.90;999.90;;;16.90;99.90;;;;;;5012988;28;20205;-69
2022/10/17 05:19:14;;;;;;;1999.90;999.90;;;16.90;99.90;;;;;;5013043;28;20568;-69
2022/10/17 05:21:40;;;;;;;1999.90;999.90;;;16.90;99.90;;;;;;5013073;28;20204;-69
2022/10/17 05:24:07;;;;;;;1999.90;999.90;;;16.90;99.90;;;;;;5013136;28;20173;-70
2022/10/17 05:26:32;;;;;;;1999.90;999.90;;;17.00;99.90;;;;;;5012266;28;20230;-68
2022/10/17 05:29:01;;;;;;;1999.90;999.90;;;17.00;99.90;;;;;;5012631;28;20426;-69
2022/10/17 05:31:27;;;;;;;1999.90;999.90;;;17.00;99.90;;;;;;5012891;28;20697;-69
2022/10/17 05:33:53;;;;;;;1999.90;999.90;;;17.00;99.90;;;;;;5012914;28;20510;-69
2022/10/17 05:36:19;;;;;;;1999.90;999.90;;;16.90;99.90;;;;;;5012741;28;20498;-69
2022/10/17 05:38:49;;;;;;;1999.90;999.90;;;16.90;99.90;;;;;;5012449;28;20872;-69
2022/10/17 05:41:15;;;;;;;1999.90;999.90;;;16.90;99.90;;;;;;5012761;28;20201;-69
2022/10/17 05:43:41;;;;;;;1999.90;999.90;;;16.90;99.90;;;;;;5012658;28;20423;-69
2022/10/17 05:46:08;;;;;;;1999.90;999.90;;;16.90;99.90;;;;;;5012533;28;20810;-69
2022/10/17 05:48:33;;;;;;;1999.90;999.90;;;16.90;99.90;;;;;;5012299;28;20192;-68
2022/10/17 05:51:01;;;;;;;1999.90;999.90;;;16.80;99.90;;;;;;5012585;28;20890;-69
2022/10/17 05:53:30;;;;;;;1999.90;999.90;;;16.80;99.90;;;;;;5012627;28;20227;-69
2022/10/17 05:55:57;;;;;;;1999.90;999.90;;;16.80;99.90;;;;;;5012472;28;20455;-69
2022/10/17 05:58:23;;;;;;;1999.90;999.90;;;16.90;99.90;;;;;;5012191;28;20943;-68
2022/10/17 06:00:49;;;;;;;1999.90;999.90;;;16.80;99.90;;;;;;5012480;28;20434;-69
2022/10/17 06:03:14;;;;;;;1999.90;999.90;;;16.80;99.90;;;;;;5012426;28;20219;-69
2022/10/17 06:05:40;;;;;;;1999.90;999.90;;;16.90;99.90;;;;;;5012318;28;20286;-70
2022/10/17 06:08:05;;;;;;;1999.90;999.90;;;16.90;99.90;;;;;;5012059;28;20589;-70
2022/10/17 06:10:31;;;;;;;1999.90;999.90;;;16.90;99.90;;;;;;5012331;28;20181;-70
2022/10/17 06:12:57;;;;;;;1999.90;999.90;;;17.00;99.90;;;;;;5012253;28;20175;-69
2022/10/17 06:15:22;;;;;;;1999.90;999.90;;;17.10;99.90;;;;;;5012111;28;20253;-69
2022/10/17 06:17:48;;;;;;;1999.90;999.90;;;17.10;99.90;;;;;;5012080;28;20224;-70
2022/10/17 06:20:13;;;;;;;1999.90;999.90;;;17.10;99.90;;;;;;5012286;28;20176;-69
2022/10/17 06:22:39;;;;;;;1999.90;999.90;;;17.20;99.90;;;;;;5012286;28;20203;-69
2022/10/17 06:25:05;;;;;;;1999.90;999.90;;;17.20;99.90;;;;;;5012223;28;20194;-69
2022/10/17 06:27:30;;;;;;;1999.90;999.90;;;17.30;99.90;;;;;;5011848;28;20208;-70
2022/10/17 06:29:56;;;;;;;1999.90;999.90;;;17.30;99.90;;;;;;5012115;28;20563;-69
2022/10/17 06:32:21;;;;;;;1999.90;999.90;;;17.40;99.90;;;;;;5012306;28;20180;-69
2022/10/17 06:34:47;;;;;;;1999.90;999.90;;;17.40;99.90;;;;;;5012124;28;20625;-69
2022/10/17 06:37:12;;;;;;;1999.90;999.90;;;17.40;99.90;;;;;;5012437;28;20200;-70
2022/10/17 06:39:38;;;;;;;1999.90;999.90;;;17.40;99.90;;;;;;5014259;28;20215;-70
2022/10/17 06:42:04;;;;;;;1999.90;999.90;;;17.40;99.90;;;;;;5013727;28;20191;-69
2022/10/17 06:44:30;;;;;;;1999.90;999.90;;;17.50;99.90;;;;;;5015754;28;20203;-69
2022/10/17 06:46:57;;;;;;;1999.90;999.90;;;17.50;99.90;;;;;;5015413;28;20206;-69
2022/10/17 06:49:23;;;;;;;1999.90;999.90;;;17.50;99.90;;;;;;5015013;28;20523;-69
2022/10/17 06:51:49;;;;;;;1999.90;999.90;;;17.40;99.90;;;;;;5015571;28;20490;-71
2022/10/17 06:54:15;;;;;;;1999.90;999.90;;;17.40;99.90;;;;;;5015559;28;20168;-71
2022/10/17 06:56:40;;;;;;;1999.90;999.90;;;17.40;99.90;;;;;;5014706;28;20665;-69
2022/10/17 06:59:07;;;;;;;1999.90;999.90;;;17.50;99.90;;;;;;5015368;28;20196;-70
2022/10/17 07:01:33;;;;;;;1999.90;999.90;;;17.40;99.90;;;;;;5015387;28;20587;-71
2022/10/17 07:03:59;;;;;;;1999.90;999.90;;;17.40;99.90;;;;;;5014843;28;20458;-69
2022/10/17 07:06:24;;;;;;;1999.90;999.90;;;17.50;99.90;;;;;;5015117;28;20199;-69
2022/10/17 07:08:50;;;;;;;1999.90;999.90;;;17.60;99.90;;;;;;5014978;28;20204;-69
2022/10/17 07:11:18;;;;;;;1999.90;999.90;;;17.60;99.90;;;;;;5014635;28;20307;-68
2022/10/17 07:13:44;;;;;;;1999.90;999.90;;;17.70;99.90;;;;;;5015181;28;20170;-69
2022/10/17 07:16:11;;;;;;;1999.90;999.90;;;17.70;99.90;;;;;;5015033;28;20485;-69
2022/10/17 07:18:37;;;;;;;1999.90;999.90;;;17.80;99.90;;;;;;5014227;28;20540;-69
2022/10/17 07:21:03;;;;;;;1999.90;999.90;;;17.90;99.90;;;;;;5015080;28;20423;-69
2022/10/17 07:23:29;;;;;;;1999.90;999.90;;;17.90;99.90;;;;;;5014886;28;20416;-69
2022/10/17 07:26:00;;;;;;;1999.90;999.90;;;17.90;99.90;;;;;;5014202;28;20461;-69
2022/10/17 07:28:26;;;;;;;1999.90;999.90;;;18.00;99.90;;;;;;5014601;28;20234;-69
2022/10/17 07:30:51;;;;;;;1999.90;999.90;;;18.00;99.90;;;;;;5014868;28;20408;-69
2022/10/17 07:33:17;;;;;;;1999.90;999.90;;;18.10;99.90;;;;;;5014266;28;20424;-69
2022/10/17 07:35:43;;;;;;;1999.90;999.90;;;18.20;99.90;;;;;;5014742;28;20203;-69
2022/10/17 07:38:08;;;;;;;1999.90;999.90;;;18.30;99.90;;;;;;5014182;28;20204;-69
2022/10/17 07:40:34;;;;;;;1999.90;999.90;;;18.40;99.90;;;;;;5014360;28;20161;-69
2022/10/17 07:43:00;;;;;;;1999.90;999.90;;;18.40;99.90;;;;;;5014638;28;20187;-69
2022/10/17 07:45:26;;;;;;;1999.90;999.90;;;18.50;99.90;;;;;;5014401;28;20530;-70
2022/10/17 07:47:58;;;;;;;1999.90;999.90;;;18.60;99.90;;;;;;5013758;28;20206;-70
2022/10/17 07:50:24;;;;;;;1999.90;999.90;;;18.70;99.90;;;;;;5013799;28;20420;-70
2022/10/17 07:52:49;;;;;;;1999.90;999.90;;;18.70;99.90;;;;;;5014198;28;20405;-70
2022/10/17 07:55:15;;;;;;;1999.90;999.90;;;18.80;99.90;;;;;;5013854;28;20467;-70
2022/10/17 07:57:41;;;;;;;1999.90;999.90;;;18.90;99.90;;;;;;5014185;28;20181;-70
2022/10/17 08:00:08;;;;;;;1999.90;999.90;;;19.00;99.90;;;;;;5014214;28;20183;-70
2022/10/17 08:02:33;;;;;;;1999.90;999.90;;;19.10;99.90;;;;;;5013837;28;20221;-69
2022/10/17 08:04:59;;;;;;;1999.90;999.90;;;19.20;99.90;;;;;;5014175;28;20411;-70
2022/10/17 08:07:24;;;;;;;1999.90;999.90;;;19.20;99.90;;;;;;5014008;28;20197;-69
2022/10/17 08:09:50;;;;;;;1999.90;999.90;;;19.30;99.90;;;;;;5013564;28;20186;-69
2022/10/17 08:12:16;;;;;;;1999.90;999.90;;;19.40;99.90;;;;;;5014147;28;20179;-69
2022/10/17 08:14:42;;;;;;;1999.90;999.90;;;19.50;99.90;;;;;;5014061;28;20201;-69
2022/10/17 08:17:08;;;;;;;1999.90;999.90;;;19.50;99.90;;;;;;5013209;28;20422;-69
2022/10/17 08:19:36;;;;;;;1999.90;999.90;;;19.50;99.90;;;;;;5013875;28;20465;-69
2022/10/17 08:22:02;;;;;;;1999.90;999.90;;;19.50;99.90;;;;;;5013874;28;20418;-69
2022/10/17 08:24:27;;;;;;;1999.90;999.90;;;19.60;99.90;;;;;;5013292;28;20410;-69
2022/10/17 08:26:53;;;;;;;1999.90;999.90;;;19.60;99.90;;;;;;5013484;28;20209;-69
2022/10/17 08:29:19;;;;;;;1999.90;999.90;;;19.70;99.90;;;;;;5013098;28;20211;-69
2022/10/17 08:31:44;;;;;;;1999.90;999.90;;;19.70;99.90;;;;;;5013188;28;20172;-69
2022/10/17 08:34:10;;;;;;;1999.90;999.90;;;19.70;99.90;;;;;;5013619;28;20487;-69
2022/10/17 08:36:36;;;;;;;1999.90;999.90;;;19.70;99.90;;;;;;5013286;28;20634;-69
2022/10/17 08:39:02;;;;;;;1999.90;999.90;;;19.80;99.90;;;;;;5012690;28;20202;-69
2022/10/17 08:41:57;;;;;;;1999.90;999.90;;;19.90;99.90;;;;;;5013437;28;20180;-69
2022/10/17 08:44:42;;;;;;;1999.90;999.90;;;20.00;99.90;;;;;;4959850;28;20433;-69
2022/10/17 08:47:14;;;;;;;1999.90;999.90;;;20.00;99.90;;;;;;5012720;28;20462;-69
2022/10/17 08:49:57;;;;;;;1999.90;999.90;;;20.10;99.90;;;;;;5013132;28;20434;-69
2022/10/17 08:52:33;;;;;;;1999.90;999.90;;;20.10;99.90;;;;;;5013434;28;20904;-69
2022/10/17 08:54:59;;;;;;;1999.90;999.90;;;20.30;99.90;;;;;;5012963;28;20451;-69
2022/10/17 08:57:25;;;;;;;1999.90;999.90;;;20.50;99.90;;;;;;5012835;28;20440;-69
2022/10/17 08:59:53;;;;;;;1999.90;999.90;;;20.60;99.90;;;;;;5013147;28;20752;-70
2022/10/17 09:02:37;;;;;;;1999.90;999.90;;;20.80;99.90;;;;;;5012043;28;20177;-70
2022/10/17 09:05:25;;;;;;;1999.90;999.90;;;20.90;99.90;;;;;;5013049;28;20462;-70
2022/10/17 09:08:36;;;;;;;1999.90;999.90;;;21.00;99.90;;;;;;5012164;28;20420;-70
2022/10/17 09:11:19;;;;;;;1999.90;999.90;;;21.10;99.90;;;;;;5009890;28;20781;-70
2022/10/17 09:14:05;;;;;;;1999.90;999.90;;;21.30;99.90;;;;;;5012964;28;20411;-70
2022/10/17 09:16:41;;;;;;;1999.90;999.90;;;21.40;99.90;;;;;;5012359;28;20483;-70
2022/10/17 09:19:29;;;;;;;1999.90;999.90;;;21.40;99.90;;;;;;5012778;28;20423;-70
2022/10/17 09:22:03;;;;;;;1999.90;999.90;;;21.50;99.90;;;;;;5125551;27;20283;-70
2022/10/17 09:24:51;;;;;;;1999.90;999.90;;;21.50;99.90;;;;;;5109011;28;20395;-70
2022/10/17 09:27:24;;;;;;;1999.90;999.90;;;21.60;99.90;;;;;;5109513;28;20404;-70
2022/10/17 09:30:14;;;;;;;1999.90;999.90;;;21.50;99.90;;;;;;5108948;28;20425;-70
2022/10/17 09:32:41;;;;;;;1999.90;999.90;;;21.50;99.90;;;;;;5108982;28;20488;-70
2022/10/17 09:35:13;;;;;;;1999.90;999.90;;;21.60;99.90;;;;;;5109609;28;20412;-70
2022/10/17 09:37:39;;;;;;;1999.90;999.90;;;21.50;99.90;;;;;;5108656;28;20460;-70
2022/10/17 09:40:10;;;;;;;1999.90;999.90;;;21.50;99.90;;;;;;5109118;28;20538;-70
2022/10/17 09:42:36;;;;;;;1999.90;999.90;;;21.60;99.90;;;;;;5109153;28;20417;-70
2022/10/17 09:45:15;;;;;;;1999.90;999.90;;;21.60;99.90;;;;;;5108898;28;20411;-70
2022/10/17 09:47:52;;;;;;;1999.90;999.90;;;21.70;99.90;;;;;;5108786;28;20408;-70
2022/10/17 09:50:29;;;;;;;1999.90;999.90;;;21.80;99.90;;;;;;5109317;28;20420;-70
2022/10/17 09:52:59;;;;;;;1999.90;999.90;;;21.90;99.90;;;;;;5108740;28;20411;-70
2022/10/17 09:55:36;;;;;;;1999.90;999.90;;;21.90;99.90;;;;;;5108971;28;20414;-70
2022/10/17 09:58:03;;;;;;;1999.90;999.90;;;22.10;99.90;;;;;;5108715;28;20431;-70
2022/10/17 10:00:36;;;;;;;1999.90;999.90;;;22.20;99.90;;;;;;5108583;28;20547;-70
2022/10/17 10:03:08;;;;;;;1999.90;999.90;;;22.30;99.90;;;;;;5109057;28;20729;-70
2022/10/17 10:05:33;;;;;;;1999.90;999.90;;;22.30;99.90;;;;;;5108763;28;20917;-70
2022/10/17 10:08:20;;;;;;;1999.90;999.90;;;22.30;99.90;;;;;;5108121;28;20430;-70
2022/10/17 10:10:45;;;;;;;1999.90;999.90;;;22.30;99.90;;;;;;5108648;28;20255;-70
2022/10/17 10:13:14;;;;;;;1999.90;999.90;;;22.30;99.90;;;;;;5108765;28;20431;-70
2022/10/17 10:15:42;;;;;;;1999.90;999.90;;;22.30;99.90;;;;;;5108330;28;20222;-70
2022/10/17 10:18:28;;;;;;;1999.90;999.90;;;22.50;99.90;;;;;;5108390;28;20430;-70
2022/10/17 10:21:11;;;;;;;1999.90;999.90;;;22.40;99.90;;;;;;5108277;28;20507;-70
2022/10/17 10:23:40;;;;;;;1999.90;999.90;;;22.20;99.90;;;;;;5108194;28;20403;-70
2022/10/17 10:26:26;;;;;;;1999.90;999.90;;;22.20;99.90;;;;;;5108359;28;20431;-70
2022/10/17 10:29:04;;;;;;;1999.90;999.90;;;22.10;99.90;;;;;;5108160;28;20424;-70
2022/10/17 10:31:38;;;;;;;1999.90;999.90;;;22.00;99.90;;;;;;5105465;28;20403;-70
2022/10/17 10:34:26;;;;;;;1999.90;999.90;;;21.90;99.90;;;;;;5094894;28;20407;-70
2022/10/17 10:36:59;;;;;;;1999.90;999.90;;;21.80;99.90;;;;;;5094263;28;20430;-69
2022/10/17 10:39:33;;;;;;;1999.90;999.90;;;21.80;99.90;;;;;;5094422;28;20488;-70
2022/10/17 10:42:03;;;;;;;1999.90;999.90;;;21.80;99.90;;;;;;5094639;28;20533;-70
2022/10/17 10:44:30;;;;;;;1999.90;999.90;;;21.90;99.90;;;;;;5094146;28;20402;-71
2022/10/17 10:47:20;;;;;;;1999.90;999.90;;;21.70;99.90;;;;;;5094204;28;20449;-70
2022/10/17 10:49:46;;;;;;;1999.90;999.90;;;21.60;99.90;;;;;;5094068;28;20418;-70
2022/10/17 10:52:42;;;;;;;1999.90;999.90;;;21.50;99.90;;;;;;5093784;28;20455;-70
2022/10/17 10:55:35;;;;;;;1999.90;999.90;;;21.40;99.90;;;;;;5094260;28;20175;-70
2022/10/17 10:58:08;;;;;;;1999.90;999.90;;;21.30;99.90;;;;;;5093808;28;20414;-71
2022/10/17 11:00:36;;;;;;;1999.90;999.90;;;21.30;99.90;;;;;;5093707;28;20515;-70
2022/10/17 11:03:20;;;;;;;1999.90;999.90;;;21.30;99.90;;;;;;5094107;28;20413;-70
2022/10/17 11:05:52;;;;;;;1999.90;999.90;;;21.40;99.90;;;;;;5093788;28;20404;-69
2022/10/17 11:08:37;;;;;;;1999.90;999.90;;;21.40;99.90;;;;;;5093393;28;20503;-70
2022/10/17 11:11:12;;;;;;;1999.90;999.90;;;21.40;99.90;;;;;;5093970;28;20457;-69
2022/10/17 11:13:48;;;;;;;1999.90;999.90;;;21.50;99.90;;;;;;5093559;28;20465;-69
2022/10/17 11:16:24;;;;;;;1999.90;999.90;;;21.50;99.90;;;;;;5093770;28;20429;-69
2022/10/17 11:18:58;;;;;;;1999.90;999.90;;;21.60;99.90;;;;;;5093602;28;20424;-69
2022/10/17 11:21:47;;;;;;;1999.90;999.90;;;21.60;99.90;;;;;;5093148;28;20823;-69
2022/10/17 11:24:26;;;;;;;1999.90;999.90;;;21.60;99.90;;;;;;5093913;28;20394;-69
2022/10/17 11:27:01;;;;;;;1999.90;999.90;;;21.60;99.90;;;;;;5093579;28;20394;-69
2022/10/17 11:29:30;;;;;;;1999.90;999.90;;;21.60;99.90;;;;;;5093040;28;20434;-70
2022/10/17 11:32:00;;;;;;;1999.90;999.90;;;21.70;99.90;;;;;;5093620;28;20402;-70
2022/10/17 11:34:31;;;;;;;1999.90;999.90;;;21.70;99.90;;;;;;5093678;28;20405;-70
2022/10/17 11:37:02;;;;;;;1999.90;999.90;;;21.70;99.90;;;;;;5092907;28;20883;-70
2022/10/17 11:39:39;;;;;;;1999.90;999.90;;;21.80;99.90;;;;;;5093231;28;20416;-70
2022/10/17 11:42:13;;;;;;;1999.90;999.90;;;21.80;99.90;;;;;;5093433;28;20403;-70
2022/10/17 11:44:40;;;;;;;1999.90;999.90;;;21.80;99.90;;;;;;5091891;28;20393;-70
2022/10/17 11:47:33;;;;;;;1999.90;999.90;;;21.90;99.90;;;;;;5093104;28;20509;-70
2022/10/17 11:50:06;;;;;;;1999.90;999.90;;;21.90;99.90;;;;;;5093169;28;20758;-70
2022/10/17 11:52:41;;;;;;;1999.90;999.90;;;21.90;99.90;;;;;;5092627;28;20422;-69
2022/10/17 11:55:25;;;;;;;1999.90;999.90;;;22.00;99.90;;;;;;5093056;28;20403;-69
2022/10/17 11:58:32;;;;;;;1999.90;999.90;;;21.90;99.90;;;;;;5092455;28;20406;-69
2022/10/17 12:01:16;;;;;;;1999.90;999.90;;;21.80;99.90;;;;;;5093022;28;20846;-70
2022/10/17 12:04:20;;;;;;;1999.90;999.90;;;21.70;99.90;;;;;;5093124;28;20393;-70
2022/10/17 12:07:21;;;;;;;1999.90;999.90;;;21.70;99.90;;;;;;5093249;28;20404;-70
2022/10/17 12:10:11;;;;;;;1999.90;999.90;;;21.70;99.90;;;;;;5093211;28;20864;-70
2022/10/17 12:12:39;;;;;;;1999.90;999.90;;;21.80;99.90;;;;;;5093320;28;20413;-69
2022/10/17 12:15:22;;;;;;;1999.90;999.90;;;21.80;99.90;;;;;;5093222;28;20795;-70
2022/10/17 12:17:54;;;;;;;1999.90;999.90;;;21.70;99.90;;;;;;5092727;28;20457;-70